Estación Meteorológica Peña el Pijo (Robertgarden) [ 11/19/17 19:02:48 CET ]

Fecha Hora Presion(HPa) Temp (°C) Humedad % Rocio (°C) Viento ( m/s) Direccion Lluvia 1Hora(mm) Lluvia 24H(mm) LLuvia Total(mm)
2017-Apr-02 01:01:46 1012.300 4.9 61 -2.0         1357.67
2017-Apr-02 02:01:44 1012.000 4.3 64 -2.0         1357.67
2017-Apr-02 03:01:52 1011.700 3.8 66 -2.0         1357.67
2017-Apr-02 04:01:53 1011.000 3.4 67 -2.2         1357.67
2017-Apr-02 05:01:54 1010.300 3.0 69 -2.1         1357.67
2017-Apr-02 06:01:55 1010.100 2.2 70 -2.7         1357.67
2017-Apr-02 07:01:45 1010.100 1.3 73 -3.1         1357.67
2017-Apr-02 08:01:47 1010.400 0.5 75 -3.4         1357.67
2017-Apr-02 09:01:47 1010.700 3.0 79 -0.3         1357.67
2017-Apr-02 10:01:48 1010.900 11.5 61 4.2         1357.67
2017-Apr-02 11:01:47 1011.100 15.2 43 2.6 0.7 WSW     1357.67
2017-Apr-02 12:02:03 1010.700 17.3 34 1.2         1357.67
2017-Apr-02 13:01:55 1010.200 19.2 30 1.3         1357.67
2017-Apr-02 14:01:41 1009.600 19.9 27 0.2         1357.67
2017-Apr-02 15:01:59 1008.900 21.8 22 -1.0         1357.67
2017-Apr-02 16:01:51 1008.700 21.9 22 -0.9         1357.67
2017-Apr-02 17:01:43 1008.600 22.1 22 -0.8         1357.67
2017-Apr-02 18:01:41 1008.500 20.9 24 -0.6         1357.67
2017-Apr-02 19:01:33 1008.700 19.1 26 -1.1         1357.67
2017-Apr-02 20:01:32 1009.100 15.3 31 -1.8         1357.67
2017-Apr-02 21:01:53 1009.600 12.5 37 -1.9         1357.67
2017-Apr-02 22:01:43 1010.400 9.5 45 -1.9         1357.67
2017-Apr-02 23:01:51 1011.300 7.4 50 -2.3         1357.67

Temperatura Máxima:22°    Temperatura Mínima:
Presión Máxima:1012.300 Hpa    Presión Mínima:1008.500 Hpa


Volver